首页
METAR-TAF:

METAR-TAF

机场 :

卡薩內, 博兹瓦纳

纬度: 17-49S, 经度: 025-09E, 海拔: 968米

当前天气观测

该预报发布于41分钟前的10:00 UTC
风速15节,风向
温度 25°C
湿度 28%
气压 1025 hPa
能见度10公里或以上
1500米以下无云,无积雨云

METAR: FBKE 211000Z 09015KT CAVOK 25/05 Q1025

时间: 12:41 (10:41 UTC)

预报

该预报发布于4小时和41分钟前的06:00 UTC
预报有效从21日的 09点(UTC)到 21日的 18点(UTC)
风速12节,风向东转东南
能见度10公里或以上
1500米以下无云,无积雨云

TAF: FBKE 210600Z 2109/2118 11012KT CAVOK

超过4000个机场的气象观测和天气预报(METAR&TAF报告)。

可查询的气象台以黄色和红色小点在地图上表示。

将鼠标移到小点上方,可查看气象台名称。

然后点击查看天气观测和预报。

如需切换地图:点击带黑十字的绿色按钮放大地图;点击带横线的绿色按钮缩小地图;或者点击绿色箭头查看邻近地区的地图。


METAR-TAF: